logo dgac
Sábado 24 de Febrero del 2018
Buscar por aerodromo o helipuerto
Ingrese nombre de aeródromo, localidad o designador OACI:
TAF: TAF SCRM 241001Z 2412/2512 31020G30KT 0500 DZ FG OVC001 TX04/2412Z TN02/2509Z TEMPO 2412/2418 2000 BR OVC003 BECMG 2417/2419 31015KT 1000 BR OVC002 BECMG 2500/2502 29010KT 2000 BR -DZ OVC003
TAF del 24/02/2018 a las 10:01 UTC
Período de validez: desde el 24 a las 12:00 UTC hasta el 25 a las 12:00 UTC
Viento: dirección 310 grados, velocidad 20 nudos, con ráfagas de velocidad máxima de 30Nudos
Visibilidad: 500 metros
LLovizna
Niebla
Nubes: Cubierto a 100 pies sobre el nivel del aeródromo
Temperatura máxima: 4ºC el 24 a las 12:00 UTC
Temperatura mínima: 2ºC el 25 a las 09:00 UTC
Se espera en forma temporal entre las 12:00 UTC del 24 y las 18:00 UTC del 24:
Visibilidad: 2000 metros
Neblina
Nubes: Cubierto a 300 pies sobre el nivel del aeródromo
Se espera un cambio entre las 17:00 UTC del 24 y las 19:00 UTC del 24, :
Viento: dirección 310 grados, velocidad 15 nudos
Visibilidad: 1000 metros
Neblina
Nubes: Cubierto a 200 pies sobre el nivel del aeródromo
Se espera un cambio entre las 00:00 UTC del 25 y las 02:00 UTC del 25, :
Viento: dirección 290 grados, velocidad 10 nudos
Visibilidad: 2000 metros
Neblina
Débil LLovizna
Nubes: Cubierto a 300 pies sobre el nivel del aeródromo